createdAt,value
2019-05-20T00:00:40.597Z,968.2
2019-05-20T00:01:42.284Z,968.2
2019-05-20T00:02:43.598Z,968.1
2019-05-20T00:03:46.435Z,968.1
2019-05-20T00:04:47.772Z,968
2019-05-20T00:05:49.418Z,968.2
2019-05-20T00:06:53.410Z,968.1
2019-05-20T00:07:54.701Z,968
2019-05-20T00:08:56.298Z,968.1
2019-05-20T00:09:57.621Z,968.1
2019-05-20T00:10:58.883Z,968.1
2019-05-20T00:12:00.166Z,968.1
2019-05-20T00:13:01.811Z,968.1
2019-05-20T00:14:03.270Z,968.1
2019-05-20T00:15:04.916Z,968.1
2019-05-20T00:16:06.200Z,968.1
2019-05-20T00:17:07.514Z,968.1
2019-05-20T00:18:08.816Z,968.1
2019-05-20T00:19:10.380Z,968
2019-05-20T00:20:11.670Z,968
2019-05-20T00:21:13.480Z,968
2019-05-20T00:22:14.752Z,968
2019-05-20T00:23:16.300Z,968
2019-05-20T00:24:17.608Z,968
2019-05-20T00:25:18.936Z,968
2019-05-20T00:26:20.270Z,968
2019-05-20T00:27:21.572Z,968
2019-05-20T00:28:23.090Z,968
2019-05-20T00:29:25.824Z,968
2019-05-20T00:30:27.246Z,967.9
2019-05-20T00:31:28.566Z,968
2019-05-20T00:32:42.654Z,967.9
2019-05-20T00:33:44.058Z,968
2019-05-20T00:34:45.332Z,968
2019-05-20T00:35:47.220Z,968
2019-05-20T00:36:48.496Z,967.9
2019-05-20T00:37:49.802Z,967.9
2019-05-20T00:38:51.163Z,967.9
2019-05-20T00:39:52.471Z,967.9
2019-05-20T00:40:53.818Z,968
2019-05-20T00:41:55.096Z,968
2019-05-20T00:42:56.366Z,967.9
2019-05-20T00:43:57.638Z,967.9
2019-05-20T00:44:58.932Z,967.9
2019-05-20T00:46:00.236Z,967.9
2019-05-20T00:47:01.544Z,967.9
2019-05-20T00:48:02.862Z,968
2019-05-20T00:49:04.339Z,967.9
2019-05-20T00:50:05.807Z,968
2019-05-20T00:51:07.616Z,967.9
2019-05-20T00:52:08.885Z,967.9
2019-05-20T00:53:10.153Z,967.9
2019-05-20T00:54:11.432Z,967.8
2019-05-20T00:55:12.768Z,967.9
2019-05-20T00:56:14.096Z,967.9
2019-05-20T00:57:15.356Z,967.8
2019-05-20T00:58:16.688Z,967.9
2019-05-20T00:59:17.968Z,967.8
2019-05-20T01:00:19.358Z,967.9
2019-05-20T01:01:20.682Z,967.9
2019-05-20T01:02:21.964Z,967.8
2019-05-20T01:03:23.270Z,968
2019-05-20T01:04:24.535Z,967.9
2019-05-20T01:05:25.832Z,968
2019-05-20T01:06:27.522Z,968
2019-05-20T01:07:28.852Z,968
2019-05-20T01:08:30.152Z,968
2019-05-20T01:09:31.459Z,968
2019-05-20T01:10:32.740Z,968.1
2019-05-20T01:11:34.096Z,967.9
2019-05-20T01:12:35.404Z,967.9
2019-05-20T01:13:36.725Z,967.9
2019-05-20T01:14:38.111Z,967.9
2019-05-20T01:15:39.440Z,967.9
2019-05-20T01:16:40.887Z,968.1
2019-05-20T01:17:42.162Z,968
2019-05-20T01:18:43.448Z,968
2019-05-20T01:19:46.966Z,968
2019-05-20T01:20:48.590Z,968.1
2019-05-20T01:21:49.910Z,968.1
2019-05-20T01:22:51.210Z,968.1
2019-05-20T01:23:52.758Z,968
2019-05-20T01:24:54.037Z,968.1
2019-05-20T01:25:55.687Z,967.9
2019-05-20T01:26:57.031Z,968.1
2019-05-20T01:27:58.291Z,968.1
2019-05-20T01:28:59.577Z,968.1
2019-05-20T01:30:00.882Z,968.2
2019-05-20T01:31:02.161Z,968.1
2019-05-20T01:32:03.499Z,968.2
2019-05-20T01:33:14.684Z,968.1
2019-05-20T01:34:16.100Z,968.2
2019-05-20T01:35:17.464Z,968.1
2019-05-20T01:36:18.735Z,968.1
2019-05-20T01:37:20.316Z,968.1
2019-05-20T01:38:21.617Z,968.1
2019-05-20T01:39:23.032Z,968.1
2019-05-20T01:40:24.315Z,968.1
2019-05-20T01:41:25.599Z,968.1
2019-05-20T01:42:26.957Z,968.1
2019-05-20T01:43:28.538Z,968.1
2019-05-20T01:44:29.819Z,968.1
2019-05-20T01:45:31.116Z,968.1
2019-05-20T01:46:32.640Z,968.1
2019-05-20T01:47:33.979Z,968.1
2019-05-20T01:48:35.346Z,968.1
2019-05-20T01:49:36.642Z,968.1
2019-05-20T01:50:37.931Z,968.1
2019-05-20T01:51:39.205Z,968.2
2019-05-20T01:52:41.580Z,968.1
2019-05-20T01:53:44.114Z,968.2
2019-05-20T01:54:45.805Z,968.2
2019-05-20T01:55:47.093Z,968.1
2019-05-20T01:56:48.691Z,968
2019-05-20T01:57:50.357Z,968.2
2019-05-20T01:58:51.621Z,968.1
2019-05-20T01:59:52.930Z,968
2019-05-20T02:00:54.286Z,968.1
2019-05-20T02:01:55.578Z,968.1
2019-05-20T02:02:56.915Z,968.1
2019-05-20T02:03:58.241Z,968
2019-05-20T02:04:59.519Z,968.1
2019-05-20T02:06:00.792Z,968.1
2019-05-20T02:07:02.088Z,968.1
2019-05-20T02:08:06.611Z,968.1
2019-05-20T02:09:07.965Z,968.1
2019-05-20T02:10:09.604Z,968.1
2019-05-20T02:11:10.932Z,968.1
2019-05-20T02:12:12.210Z,968
2019-05-20T02:13:13.538Z,968.1
2019-05-20T02:14:14.821Z,968.1
2019-05-20T02:15:16.127Z,968.1
2019-05-20T02:16:17.410Z,968
2019-05-20T02:17:18.701Z,968
2019-05-20T02:18:20.087Z,968.1
2019-05-20T02:19:21.379Z,968.1
2019-05-20T02:20:22.652Z,968.2
2019-05-20T02:21:23.941Z,968.1
2019-05-20T02:22:25.245Z,968.2
2019-05-20T02:23:26.593Z,968.1
2019-05-20T02:24:27.877Z,968.1
2019-05-20T02:25:29.147Z,968.1
2019-05-20T02:26:30.456Z,968.2
2019-05-20T02:27:33.949Z,968.2
2019-05-20T02:28:35.282Z,968.2
2019-05-20T02:29:36.557Z,968.2
2019-05-20T02:30:37.906Z,968.1
2019-05-20T02:31:40.492Z,968.1
2019-05-20T02:32:41.771Z,968.1
2019-05-20T02:33:53.110Z,968.2
2019-05-20T02:34:54.588Z,968.1
2019-05-20T02:35:55.954Z,968.1
2019-05-20T02:36:57.576Z,968.1
2019-05-20T02:37:58.837Z,968
2019-05-20T02:39:00.175Z,968.1
2019-05-20T02:40:04.366Z,968
2019-05-20T02:41:05.669Z,968
2019-05-20T02:42:06.947Z,968
2019-05-20T02:43:08.254Z,967.9
2019-05-20T02:44:09.577Z,968
2019-05-20T02:45:10.843Z,968
2019-05-20T02:46:12.181Z,968
2019-05-20T02:47:13.465Z,967.9
2019-05-20T02:48:14.755Z,968
2019-05-20T02:49:16.064Z,968
2019-05-20T02:50:17.480Z,968
2019-05-20T02:51:18.867Z,968.1
2019-05-20T02:52:20.147Z,968
2019-05-20T02:53:21.417Z,967.9
2019-05-20T02:54:22.711Z,968
2019-05-20T02:55:26.311Z,968.1
2019-05-20T02:56:27.595Z,968
2019-05-20T02:57:28.865Z,968
2019-05-20T02:58:30.172Z,967.9
2019-05-20T02:59:31.524Z,968.1
2019-05-20T03:00:33.035Z,968
2019-05-20T03:01:34.338Z,968
2019-05-20T03:02:35.671Z,968
2019-05-20T03:03:37.247Z,968.1
2019-05-20T03:04:38.605Z,968.1
2019-05-20T03:05:39.893Z,968.1
2019-05-20T03:06:41.141Z,968.1
2019-05-20T03:07:42.413Z,968.1
2019-05-20T03:08:43.713Z,968
2019-05-20T03:09:44.993Z,968
2019-05-20T03:10:46.317Z,968.1
2019-05-20T03:11:47.650Z,968
2019-05-20T03:12:48.933Z,968.1
2019-05-20T03:13:50.196Z,968.1
2019-05-20T03:14:51.582Z,968.1
2019-05-20T03:15:52.899Z,968.1
2019-05-20T03:16:54.191Z,968.1
2019-05-20T03:17:55.482Z,968
2019-05-20T03:18:56.758Z,968
2019-05-20T03:19:58.061Z,968.1
2019-05-20T03:20:59.325Z,968.1
2019-05-20T03:22:00.685Z,968.1
2019-05-20T03:23:02.024Z,968.1
2019-05-20T03:24:03.316Z,968.1
2019-05-20T03:25:04.642Z,968.1
2019-05-20T03:26:05.935Z,968.1
2019-05-20T03:27:07.213Z,968.1
2019-05-20T03:28:08.521Z,968.1
2019-05-20T03:29:09.821Z,968
2019-05-20T03:30:11.141Z,968.1
2019-05-20T03:31:12.427Z,968.1
2019-05-20T03:32:13.741Z,968
2019-05-20T03:33:15.063Z,968
2019-05-20T03:34:51.092Z,968
2019-05-20T03:35:58.765Z,968
2019-05-20T03:37:00.058Z,967.8
2019-05-20T03:38:01.358Z,967.9
2019-05-20T03:39:02.652Z,968.1
2019-05-20T03:40:03.937Z,968
2019-05-20T03:41:05.259Z,968
2019-05-20T03:42:06.603Z,968
2019-05-20T03:43:07.889Z,968.1
2019-05-20T03:44:09.301Z,968
2019-05-20T03:45:12.888Z,968
2019-05-20T03:46:14.332Z,968
2019-05-20T03:47:15.993Z,968.1
2019-05-20T03:48:17.306Z,968
2019-05-20T03:49:18.568Z,968.1
2019-05-20T03:50:20.086Z,968.1
2019-05-20T03:51:21.440Z,968.1
2019-05-20T03:52:22.745Z,968.1
2019-05-20T03:53:24.012Z,968
2019-05-20T03:54:25.314Z,967.8
2019-05-20T03:55:26.597Z,968
2019-05-20T03:56:32.251Z,968
2019-05-20T03:57:33.621Z,968
2019-05-20T03:58:34.897Z,968.1
2019-05-20T03:59:36.176Z,968
2019-05-20T04:00:37.457Z,967.8
2019-05-20T04:01:38.806Z,968
2019-05-20T04:02:40.122Z,968.1
2019-05-20T04:03:42.378Z,968.1
2019-05-20T04:05:02.992Z,968
2019-05-20T04:06:04.567Z,968
2019-05-20T04:07:08.346Z,968
2019-05-20T04:08:11.808Z,968
2019-05-20T04:09:13.112Z,968.1
2019-05-20T04:10:14.386Z,968
2019-05-20T04:11:15.689Z,968
2019-05-20T04:12:17.055Z,968.1
2019-05-20T04:13:18.582Z,968
2019-05-20T04:14:19.869Z,968.1
2019-05-20T04:15:21.151Z,968.1
2019-05-20T04:16:22.446Z,968.1
2019-05-20T04:17:23.773Z,968.1
2019-05-20T04:18:25.042Z,968
2019-05-20T04:19:26.379Z,968
2019-05-20T04:20:27.660Z,968
2019-05-20T04:21:28.981Z,968
2019-05-20T04:22:30.307Z,968
2019-05-20T04:23:31.600Z,968.1
2019-05-20T04:24:32.897Z,968
2019-05-20T04:25:34.190Z,968.1
2019-05-20T04:26:35.495Z,968
2019-05-20T04:27:36.824Z,968.1
2019-05-20T04:28:38.474Z,968.1
2019-05-20T04:29:39.757Z,968
2019-05-20T04:30:41.154Z,968.1
2019-05-20T04:31:42.531Z,968.2
2019-05-20T04:32:43.864Z,968.1
2019-05-20T04:33:45.193Z,968.2
2019-05-20T04:34:46.478Z,968.2
2019-05-20T04:35:50.558Z,968.2
2019-05-20T04:36:51.851Z,968.1
2019-05-20T04:37:53.270Z,968.2
2019-05-20T04:38:55.590Z,968.1
2019-05-20T04:39:56.855Z,968.1
2019-05-20T04:41:00.248Z,967.8
2019-05-20T04:42:01.571Z,967.9
2019-05-20T04:43:02.910Z,967.9
2019-05-20T04:44:04.197Z,968
2019-05-20T04:45:07.306Z,968
2019-05-20T04:46:08.627Z,968.1
2019-05-20T04:47:09.937Z,968.1
2019-05-20T04:48:14.712Z,968
2019-05-20T04:49:16.008Z,968.1
2019-05-20T04:50:17.366Z,968
2019-05-20T04:51:18.687Z,968
2019-05-20T04:52:20.017Z,968.1
2019-05-20T04:53:21.362Z,968
2019-05-20T04:54:22.654Z,968
2019-05-20T04:55:23.984Z,968.1
2019-05-20T04:56:29.719Z,968.1
2019-05-20T04:57:30.996Z,968.1
2019-05-20T04:58:32.316Z,968.2
2019-05-20T04:59:33.659Z,968.2
2019-05-20T05:00:34.982Z,968.1
2019-05-20T05:01:36.825Z,968.1
2019-05-20T05:02:42.544Z,968.1
2019-05-20T05:03:46.133Z,968.1
2019-05-20T05:04:47.472Z,968.2
2019-05-20T05:05:48.786Z,968.2
2019-05-20T05:06:50.080Z,968.3
2019-05-20T05:07:51.344Z,968.3
2019-05-20T05:08:52.673Z,968
2019-05-20T05:09:54.272Z,968.3
2019-05-20T05:10:55.760Z,968.3
2019-05-20T05:11:57.068Z,968.2
2019-05-20T05:12:58.348Z,968.4
2019-05-20T05:13:59.658Z,968.2
2019-05-20T05:15:01.052Z,968.3
2019-05-20T05:16:04.804Z,968.3
2019-05-20T05:17:06.090Z,968.2
2019-05-20T05:18:07.395Z,968.3
2019-05-20T05:19:08.808Z,968.2
2019-05-20T05:20:18.750Z,968.3
2019-05-20T05:21:20.190Z,968.3
2019-05-20T05:22:21.484Z,968.3
2019-05-20T05:23:22.747Z,968.4
2019-05-20T05:24:24.063Z,968.5
2019-05-20T05:25:25.348Z,968.5
2019-05-20T05:26:26.641Z,968.4
2019-05-20T05:27:27.954Z,968.4
2019-05-20T05:28:29.258Z,968.5
2019-05-20T05:29:30.605Z,968.4
2019-05-20T05:30:31.913Z,968.5
2019-05-20T05:31:33.287Z,968.6
2019-05-20T05:32:34.908Z,968.5
2019-05-20T05:33:36.218Z,968.6
2019-05-20T05:34:37.586Z,968.6
2019-05-20T05:35:53.953Z,968.7
2019-05-20T05:36:55.613Z,968.8
2019-05-20T05:37:57.249Z,968.7
2019-05-20T05:38:59.722Z,968.8
2019-05-20T05:40:01.070Z,968.8
2019-05-20T05:41:02.629Z,968.9
2019-05-20T05:42:04.137Z,969
2019-05-20T05:43:05.489Z,969
2019-05-20T05:44:06.770Z,969
2019-05-20T05:45:08.300Z,969.1
2019-05-20T05:46:11.144Z,969.1
2019-05-20T05:47:12.504Z,969.1
2019-05-20T05:48:13.790Z,969
2019-05-20T05:49:15.093Z,969.1
2019-05-20T05:50:16.413Z,969.1
2019-05-20T05:51:20.209Z,969.2
2019-05-20T05:52:23.742Z,969.2
2019-05-20T05:53:25.086Z,969.3
2019-05-20T05:54:26.392Z,969.4
2019-05-20T05:55:27.785Z,969.3
2019-05-20T05:56:29.168Z,969.4
2019-05-20T05:57:30.478Z,969.4
2019-05-20T05:58:31.792Z,969.5
2019-05-20T05:59:33.549Z,969.5
2019-05-20T06:00:34.940Z,969.5
2019-05-20T06:01:36.291Z,969.6
2019-05-20T06:02:37.633Z,969.6
2019-05-20T06:03:39.043Z,969.6
2019-05-20T06:04:40.361Z,969.6
2019-05-20T06:05:41.790Z,969.7
2019-05-20T06:06:43.433Z,969.7
2019-05-20T06:07:44.945Z,969.8
2019-05-20T06:08:46.337Z,969.8
2019-05-20T06:09:47.974Z,969.9
2019-05-20T06:10:50.827Z,969.9
2019-05-20T06:11:52.127Z,969.9
2019-05-20T06:12:53.420Z,970
2019-05-20T06:13:54.700Z,969.9
2019-05-20T06:15:00.353Z,970
2019-05-20T06:16:01.722Z,970
2019-05-20T06:17:03.043Z,970.1
2019-05-20T06:18:07.191Z,970
2019-05-20T06:19:09.875Z,970
2019-05-20T06:20:13.609Z,970
2019-05-20T06:21:17.315Z,970.1
2019-05-20T06:22:20.287Z,970.1
2019-05-20T06:23:21.551Z,970.1
2019-05-20T06:24:22.853Z,970.2
2019-05-20T06:25:24.224Z,970.2
2019-05-20T06:26:26.989Z,970.2
2019-05-20T06:27:31.521Z,970.2
2019-05-20T06:28:32.814Z,970.1
2019-05-20T06:29:34.352Z,970.2
2019-05-20T06:30:35.647Z,970.3
2019-05-20T06:31:37.260Z,970.3
2019-05-20T06:32:39.162Z,970.4
2019-05-20T06:33:40.434Z,970.4
2019-05-20T06:34:43.859Z,970.4
2019-05-20T06:35:47.549Z,970.5
2019-05-20T06:36:50.486Z,970.5
2019-05-20T06:37:51.825Z,970.6
2019-05-20T06:38:53.382Z,970.6
2019-05-20T06:39:54.733Z,970.6
2019-05-20T06:40:56.008Z,970.6
2019-05-20T06:42:00.553Z,970.6
2019-05-20T06:43:01.912Z,970.6
2019-05-20T06:44:03.305Z,970.6
2019-05-20T06:45:04.582Z,970.6
2019-05-20T06:46:10.176Z,970.5
2019-05-20T06:47:13.243Z,970.7
2019-05-20T06:48:14.747Z,970.7
2019-05-20T06:49:16.053Z,970.7
2019-05-20T06:50:17.343Z,970.7
2019-05-20T06:51:19.327Z,970.7
2019-05-20T06:52:36.409Z,970.8
2019-05-20T06:53:37.808Z,970.8
2019-05-20T06:54:39.173Z,970.8
2019-05-20T06:55:40.482Z,970.8
2019-05-20T06:56:47.768Z,970.9
2019-05-20T06:57:49.213Z,970.8
2019-05-20T06:58:51.823Z,970.7
2019-05-20T06:59:53.132Z,970.9
2019-05-20T07:00:54.429Z,971
2019-05-20T07:01:55.748Z,970.9
2019-05-20T07:02:57.082Z,970.8
2019-05-20T07:03:58.377Z,971
2019-05-20T07:04:59.950Z,970.9
2019-05-20T07:06:06.596Z,971
2019-05-20T07:07:21.544Z,971
2019-05-20T07:08:24.793Z,971.1
2019-05-20T07:09:26.484Z,971.1
2019-05-20T07:10:27.801Z,971
2019-05-20T07:11:29.603Z,970.9
2019-05-20T07:12:42.307Z,971.1
2019-05-20T07:13:45.568Z,971.1
2019-05-20T07:14:46.873Z,971.1
2019-05-20T07:15:52.734Z,971.2
2019-05-20T07:16:57.313Z,971.2
2019-05-20T07:18:05.435Z,971.2
2019-05-20T07:19:09.035Z,971.2
2019-05-20T07:20:10.743Z,971.2
2019-05-20T07:21:13.548Z,971.1
2019-05-20T07:22:14.926Z,971.2
2019-05-20T07:23:16.405Z,971.1
2019-05-20T07:24:17.830Z,971.1
2019-05-20T07:25:19.181Z,971.2
2019-05-20T07:26:21.998Z,971.1
2019-05-20T07:27:23.637Z,971.2
2019-05-20T07:28:24.957Z,971.1
2019-05-20T07:29:28.389Z,971
2019-05-20T07:30:29.849Z,971.1
2019-05-20T07:31:31.505Z,971.1
2019-05-20T07:32:35.595Z,971.1
2019-05-20T07:33:39.061Z,971
2019-05-20T07:34:40.431Z,970.9
2019-05-20T07:35:45.245Z,971.1
2019-05-20T07:37:04.048Z,971
2019-05-20T07:38:05.545Z,971.1
2019-05-20T07:39:07.089Z,971
2019-05-20T07:40:08.463Z,971
2019-05-20T07:41:09.770Z,970.9
2019-05-20T07:42:11.321Z,970.9
2019-05-20T07:43:15.384Z,971
2019-05-20T07:44:16.661Z,970.9
2019-05-20T07:45:18.314Z,970.9
2019-05-20T07:46:19.603Z,970.9
2019-05-20T07:47:20.905Z,970.9
2019-05-20T07:48:22.359Z,970.9
2019-05-20T07:49:25.989Z,970.8
2019-05-20T07:50:27.804Z,970.8
2019-05-20T07:51:31.693Z,970.7
2019-05-20T07:52:33.685Z,970.8
2019-05-20T07:53:35.365Z,970.8
2019-05-20T07:54:38.918Z,970.5
2019-05-20T07:55:40.371Z,970.7
2019-05-20T07:56:41.672Z,970.6
2019-05-20T07:57:43.346Z,970.6
2019-05-20T07:58:44.679Z,970.6
2019-05-20T07:59:46.313Z,970.5
2019-05-20T08:00:48.622Z,970.5
2019-05-20T08:01:50.369Z,970.5
2019-05-20T08:02:51.660Z,970.5
2019-05-20T08:03:53.155Z,970.4
2019-05-20T08:04:54.692Z,970.3
2019-05-20T08:05:56.055Z,970.5
2019-05-20T08:06:57.392Z,970.4
2019-05-20T08:07:59.119Z,970.5
2019-05-20T08:09:00.801Z,970.5
2019-05-20T08:10:02.687Z,970.4
2019-05-20T08:11:04.030Z,970.4
2019-05-20T08:12:05.337Z,970.5
2019-05-20T08:13:09.390Z,970.4
2019-05-20T08:14:10.716Z,970.4
2019-05-20T08:15:12.403Z,970.3
2019-05-20T08:16:14.017Z,970.4
2019-05-20T08:17:15.349Z,970.4
2019-05-20T08:18:21.241Z,970.3
2019-05-20T08:19:22.567Z,970.4
2019-05-20T08:20:28.688Z,970.4
2019-05-20T08:21:30.034Z,970.4
2019-05-20T08:22:31.364Z,970.3
2019-05-20T08:23:32.768Z,970.3
2019-05-20T08:24:34.116Z,970.3
2019-05-20T08:25:35.683Z,970.4
2019-05-20T08:26:37.147Z,970.3
2019-05-20T08:27:43.550Z,970.3
2019-05-20T08:28:44.892Z,970.4
2019-05-20T08:29:46.307Z,970.3
2019-05-20T08:30:47.682Z,970.4
2019-05-20T08:31:58.233Z,970.4
2019-05-20T08:33:00.864Z,970.5
2019-05-20T08:34:02.188Z,970.5
2019-05-20T08:35:03.565Z,970.5
2019-05-20T08:36:04.912Z,970.6
2019-05-20T08:37:06.641Z,970.7
2019-05-20T08:38:07.996Z,970.5
2019-05-20T08:39:09.350Z,970.6
2019-05-20T08:40:10.808Z,970.6
2019-05-20T08:41:12.154Z,970.7
2019-05-20T08:42:13.693Z,970.7
2019-05-20T08:43:15.058Z,970.8
2019-05-20T08:44:16.394Z,970.7
2019-05-20T08:45:18.484Z,970.7
2019-05-20T08:46:19.800Z,970.7
2019-05-20T08:47:21.214Z,970.7
2019-05-20T08:48:22.558Z,970.6
2019-05-20T08:49:23.948Z,970.5
2019-05-20T08:50:25.920Z,970.6
2019-05-20T08:51:27.238Z,970.5
2019-05-20T08:52:28.843Z,970.5
2019-05-20T08:53:32.652Z,970.5
2019-05-20T08:54:34.373Z,970.5
2019-05-20T08:55:35.786Z,970.4
2019-05-20T08:56:37.182Z,970.4
2019-05-20T08:57:38.760Z,970.4
2019-05-20T08:58:40.090Z,970.4
2019-05-20T08:59:41.440Z,970.4
2019-05-20T09:00:44.877Z,970.4
2019-05-20T09:01:46.196Z,970.3
2019-05-20T09:02:47.543Z,970.3
2019-05-20T09:03:50.146Z,970.3
2019-05-20T09:04:51.764Z,970.3
2019-05-20T09:05:53.056Z,970.3
2019-05-20T09:06:54.501Z,970.2
2019-05-20T09:08:04.275Z,970.2
2019-05-20T09:09:06.204Z,970.2
2019-05-20T09:10:07.514Z,970.2
2019-05-20T09:11:20.725Z,970.3
2019-05-20T09:12:31.498Z,970.3
2019-05-20T09:13:38.115Z,970.3
2019-05-20T09:14:41.578Z,970.2
2019-05-20T09:15:46.105Z,970.2
2019-05-20T09:16:47.680Z,970.2
2019-05-20T09:17:48.997Z,970.2
2019-05-20T09:18:50.386Z,970.2
2019-05-20T09:19:51.710Z,970.2
2019-05-20T09:20:53.141Z,970.2
2019-05-20T09:21:57.841Z,970.2
2019-05-20T09:23:03.251Z,969.9
2019-05-20T09:24:04.604Z,970.1
2019-05-20T09:25:07.041Z,970.1
2019-05-20T09:26:08.650Z,970.1
2019-05-20T09:27:09.992Z,970
2019-05-20T09:28:11.328Z,970
2019-05-20T09:29:17.331Z,969.9
2019-05-20T09:30:18.886Z,970
2019-05-20T09:31:20.258Z,969.9
2019-05-20T09:32:23.190Z,969.8
2019-05-20T09:33:24.571Z,970
2019-05-20T09:34:28.998Z,969.9
2019-05-20T09:35:30.663Z,970
2019-05-20T09:36:31.974Z,970.1
2019-05-20T09:37:36.332Z,970.1
2019-05-20T09:38:38.255Z,969.9
2019-05-20T09:39:39.744Z,970
2019-05-20T09:40:43.959Z,970
2019-05-20T09:41:48.684Z,970
2019-05-20T09:42:52.933Z,969.9
2019-05-20T09:43:56.152Z,969.9
2019-05-20T09:45:06.758Z,970
2019-05-20T09:46:11.424Z,970
2019-05-20T09:47:13.213Z,969.8
2019-05-20T09:48:17.400Z,969.9
2019-05-20T09:49:21.412Z,969.9
2019-05-20T09:50:23.313Z,969.9
2019-05-20T09:51:28.346Z,969.9
2019-05-20T09:52:33.763Z,969.7
2019-05-20T09:53:35.308Z,969.9
2019-05-20T09:54:38.492Z,969.8
2019-05-20T09:55:50.821Z,969.7
2019-05-20T09:56:54.485Z,969.9
2019-05-20T09:57:56.352Z,969.8
2019-05-20T09:58:58.178Z,969.8
2019-05-20T10:00:07.178Z,969.7
2019-05-20T10:01:11.491Z,969.9
2019-05-20T10:02:15.318Z,969.8
2019-05-20T10:03:19.168Z,969.8
2019-05-20T10:04:21.077Z,969.8
2019-05-20T10:05:24.316Z,969.8
2019-05-20T10:06:26.170Z,969.9
2019-05-20T10:07:28.944Z,969.9
2019-05-20T10:08:44.872Z,969.8
2019-05-20T10:09:47.178Z,969.8
2019-05-20T10:10:51.819Z,969.8
2019-05-20T10:11:53.566Z,969.8
2019-05-20T10:12:55.259Z,969.8
2019-05-20T10:14:04.169Z,969.8
2019-05-20T10:15:08.688Z,969.7
2019-05-20T10:16:11.508Z,969.7
2019-05-20T10:17:13.153Z,969.6
2019-05-20T10:18:14.765Z,969.6
2019-05-20T10:19:16.640Z,969.7
2019-05-20T10:20:17.967Z,969.7
2019-05-20T10:21:19.646Z,969.7
2019-05-20T10:22:21.391Z,969.7
2019-05-20T10:23:26.598Z,969.7
2019-05-20T10:24:28.044Z,969.6
2019-05-20T10:25:29.601Z,969.6
2019-05-20T10:26:31.562Z,969.6
2019-05-20T10:27:33.618Z,969.6
2019-05-20T10:28:34.933Z,969.5
2019-05-20T10:29:36.262Z,969.5
2019-05-20T10:30:37.568Z,969.5
2019-05-20T10:31:41.377Z,969.5
2019-05-20T10:32:44.752Z,969.6
2019-05-20T10:33:48.819Z,969.5
2019-05-20T10:34:50.379Z,969.5
2019-05-20T10:35:51.716Z,969.5
2019-05-20T10:36:56.637Z,969.5
2019-05-20T10:37:59.067Z,969.5
2019-05-20T10:40:21.971Z,969.5
2019-05-20T10:41:27.504Z,969.4
2019-05-20T10:42:30.690Z,969.5
2019-05-20T10:43:35.165Z,969.4
2019-05-20T10:44:36.462Z,969.4
2019-05-20T10:45:37.974Z,969.5
2019-05-20T10:46:39.774Z,969.5
2019-05-20T10:47:45.271Z,969.4
2019-05-20T10:48:48.130Z,969.4
2019-05-20T10:49:49.491Z,969.4
2019-05-20T10:50:50.773Z,969.6
2019-05-20T10:51:54.413Z,969.5
2019-05-20T10:52:57.936Z,969.5
2019-05-20T10:53:59.556Z,969.4
2019-05-20T10:55:02.273Z,969.4
2019-05-20T10:56:04.125Z,969.4
2019-05-20T10:57:05.473Z,969.4
2019-05-20T10:58:08.790Z,969.5
2019-05-20T10:59:14.345Z,969.4
2019-05-20T11:00:15.645Z,969.5
2019-05-20T11:01:18.891Z,969.5
2019-05-20T11:02:22.838Z,969.4
2019-05-20T11:03:24.164Z,969.2
2019-05-20T11:04:25.524Z,969.4
2019-05-20T11:05:29.610Z,969.2
2019-05-20T11:06:30.896Z,969.3
2019-05-20T11:07:32.252Z,969.4
2019-05-20T11:08:33.545Z,969.3
2019-05-20T11:09:36.025Z,969.2
2019-05-20T11:10:40.561Z,969.3
2019-05-20T11:11:42.098Z,969.2
2019-05-20T11:12:43.450Z,969.2
2019-05-20T11:13:47.734Z,969.2
2019-05-20T11:14:49.309Z,969.2
2019-05-20T11:15:51.089Z,969.2
2019-05-20T11:16:52.778Z,969.2
2019-05-20T11:17:54.501Z,969.2
2019-05-20T11:18:59.203Z,969.2
2019-05-20T11:20:01.662Z,969.3
2019-05-20T11:21:02.987Z,969.2
2019-05-20T11:22:07.321Z,969.2
2019-05-20T11:23:10.311Z,969.2
2019-05-20T11:24:17.229Z,969.3
2019-05-20T11:25:20.246Z,969.2
2019-05-20T11:26:21.582Z,969.2
2019-05-20T11:27:24.129Z,969.2
2019-05-20T11:28:25.447Z,969.1
2019-05-20T11:29:30.324Z,969.2
2019-05-20T11:30:31.995Z,969.1
2019-05-20T11:31:33.429Z,969.3
2019-05-20T11:32:35.000Z,969.2
2019-05-20T11:33:36.634Z,969.2
2019-05-20T11:34:38.211Z,969.1
2019-05-20T11:35:39.805Z,969.1
2019-05-20T11:36:41.831Z,969.2
2019-05-20T11:37:43.140Z,969.2
2019-05-20T11:38:44.440Z,969.2
2019-05-20T11:39:46.238Z,969.1
2019-05-20T11:40:47.563Z,969
2019-05-20T11:41:54.724Z,969.1
2019-05-20T11:42:58.879Z,969.1
2019-05-20T11:44:01.469Z,969.1
2019-05-20T11:45:02.785Z,969
2019-05-20T11:46:06.293Z,969
2019-05-20T11:47:07.642Z,969
2019-05-20T11:48:13.096Z,969
2019-05-20T11:49:15.328Z,969
2019-05-20T11:50:16.813Z,968.9
2019-05-20T11:51:18.799Z,968.8
2019-05-20T11:52:20.138Z,968.8
2019-05-20T11:53:22.725Z,969
2019-05-20T11:54:24.077Z,968.9
2019-05-20T11:55:25.716Z,968.9
2019-05-20T11:56:27.327Z,968.9
2019-05-20T11:57:30.015Z,969
2019-05-20T11:58:31.668Z,969
2019-05-20T11:59:33.277Z,969
2019-05-20T12:00:44.719Z,969
2019-05-20T12:01:46.658Z,968.8
2019-05-20T12:02:47.961Z,968.9
2019-05-20T12:03:49.281Z,969
2019-05-20T12:04:50.615Z,968.9
2019-05-20T12:05:52.250Z,968.7
2019-05-20T12:06:55.608Z,968.9
2019-05-20T12:07:59.293Z,968.8
2019-05-20T12:09:00.591Z,968.8
2019-05-20T12:10:01.896Z,968.7
2019-05-20T12:11:10.411Z,968.8
2019-05-20T12:12:11.761Z,968.8
2019-05-20T12:13:13.301Z,968.7
2019-05-20T12:14:14.631Z,968.7
2019-05-20T12:15:16.183Z,968.7
2019-05-20T12:16:17.517Z,968.7
2019-05-20T12:17:19.306Z,968.8
2019-05-20T12:18:20.628Z,968.8
2019-05-20T12:19:23.722Z,968.8
2019-05-20T12:20:27.502Z,968.8
2019-05-20T12:21:28.838Z,968.8
2019-05-20T12:22:30.213Z,968.8
2019-05-20T12:23:31.519Z,968.7
2019-05-20T12:24:37.783Z,968.7
2019-05-20T12:25:39.197Z,968.7
2019-05-20T12:26:40.523Z,968.8
2019-05-20T12:27:41.868Z,968.8
2019-05-20T12:28:43.231Z,968.8
2019-05-20T12:29:44.870Z,968.7
2019-05-20T12:30:48.134Z,968.6
2019-05-20T12:31:49.495Z,968.5
2019-05-20T12:33:15.485Z,968.7
2019-05-20T12:34:21.734Z,968.6
2019-05-20T12:35:23.089Z,968.6
2019-05-20T12:36:26.837Z,968.5
2019-05-20T12:37:30.467Z,968.6
2019-05-20T12:38:31.802Z,968.6
2019-05-20T12:39:33.331Z,968.6
2019-05-20T12:40:34.672Z,968.6
2019-05-20T12:41:36.961Z,968.6
2019-05-20T12:42:38.579Z,968.6
2019-05-20T12:43:39.928Z,968.6
2019-05-20T12:44:41.618Z,968.6
2019-05-20T12:45:53.146Z,968.6
2019-05-20T12:46:54.450Z,968.5
2019-05-20T12:47:55.976Z,968.6
2019-05-20T12:48:57.431Z,968.6
2019-05-20T12:50:01.482Z,968.6
2019-05-20T12:51:02.857Z,968.5
2019-05-20T12:52:04.184Z,968.6
2019-05-20T12:53:05.549Z,968.6
2019-05-20T12:54:09.908Z,968.6
2019-05-20T12:55:11.730Z,968.6
2019-05-20T12:56:13.282Z,968.6
2019-05-20T12:57:15.100Z,968.7
2019-05-20T12:58:19.386Z,968.6
2019-05-20T12:59:23.232Z,968.6
2019-05-20T13:00:24.543Z,968.6
2019-05-20T13:01:25.918Z,968.5
2019-05-20T13:02:28.272Z,968.4
2019-05-20T13:03:30.892Z,968.5
2019-05-20T13:04:32.451Z,968.4
2019-05-20T13:05:33.773Z,968.4
2019-05-20T13:06:35.109Z,968.4
2019-05-20T13:07:36.566Z,968.4
2019-05-20T13:08:40.294Z,968.4
2019-05-20T13:09:46.834Z,968.4
2019-05-20T13:10:48.171Z,968.4
2019-05-20T13:11:49.461Z,968.5
2019-05-20T13:12:50.791Z,968.4
2019-05-20T13:14:05.122Z,968.4
2019-05-20T13:15:06.837Z,968.4
2019-05-20T13:16:08.227Z,968.4
2019-05-20T13:17:19.301Z,968.4
2019-05-20T13:18:21.588Z,968.4
2019-05-20T13:19:28.566Z,968.4
2019-05-20T13:20:32.296Z,968.5
2019-05-20T13:21:33.685Z,968.4
2019-05-20T13:22:34.972Z,968.4
2019-05-20T13:23:42.215Z,968.5
2019-05-20T13:24:43.516Z,968.5
2019-05-20T13:25:44.884Z,968.5
2019-05-20T13:26:50.013Z,968.5
2019-05-20T13:27:52.125Z,968.4
2019-05-20T13:28:54.295Z,968.4
2019-05-20T13:29:55.622Z,968.4
2019-05-20T13:30:57.272Z,968.4
2019-05-20T13:31:58.576Z,968.4
2019-05-20T13:32:59.990Z,968.4
2019-05-20T13:34:04.517Z,968.4